aviador You're here:

CYAH Decoded Metar

LA GRANDE IV ARP in QC, CANADA
Report Time2018-04-25 04:37:00
UTC Time2018-04-25 06:52:29
Flight Rules Old
Wind270° at 09 kt
W.Decomp.*RWY 27: 8.5 kt HW 2.9 kt RCW
W.Rank270° ranks 6
Current wind is below 270° avg. (9.4)
Visibility9999 m
Phenomena:Shallow Snow Grains
Clouds:Scattered 012 Hf
Broken 018 Hf
Overcast 037 Hf
Expected CloudBase > 400 ft AGL from Temp-Dew spread
Ceiling1,800 ft
Temp-2°C (ISA -15)
Dew Point-3°C (93% RH)
AAT-7.6°C
QNH1015 hPa
Density Alt-830 ft
Elevation1,004 ft
Report Wrong Elevation
Raw Report
SPECI CYAH 250437Z AUTO 27009KT 9SM SCT012 BKN018 OVC037 M02/M03 A2997
RMK ICG MISG SLP170=

Extra information for CYAH:More info

Metar Taf Metar & Taf Last 4 Metars F.Rules Stats Wind Profile Meteogram Temp Stats Airport Information Weather charts Add Link Nearby VenuesMetar ALERT Operation Metar Decoded Social comments